Time;durP1;ratioP1;P1;durP2;ratioP2;P2;SDS_P1;SDS_P2;PMS_P1;PMS_P2;Temp;Humidity;BMP_temperature;BMP_pressure;BME280_temperature;BME280_humidity;BME280_pressure;Samples;Min_cycle;Max_cycle;Signal;HPM_P1;HPM_P2
2023/04/06 00:01:11;;;;;;;8.95;5.40;;;;;;;;;;5037969;28;20425;-67
2023/04/06 00:03:37;;;;;;;8.38;5.28;;;;;;;;;;5047267;28;20106;-67
2023/04/06 00:06:03;;;;;;;11.68;5.72;;;;;;;;;;5029613;28;20071;-68
2023/04/06 00:08:30;;;;;;;9.40;5.65;;;;;;;;;;5030312;28;20091;-67
2023/04/06 00:10:56;;;;;;;7.45;5.15;;;;;;;;;;5048631;28;20059;-67
2023/04/06 00:13:22;;;;;;;7.70;5.35;;;;;;;;;;5047716;28;20560;-66
2023/04/06 00:15:48;;;;;;;7.65;5.20;;;;;;;;;;5044050;28;20060;-66
2023/04/06 00:18:14;;;;;;;6.43;4.30;;;;;;;;;;5011163;28;20106;-66
2023/04/06 00:20:41;;;;;;;7.18;5.38;;;;;;;;;;5048334;28;20033;-66
2023/04/06 00:23:07;;;;;;;7.70;5.15;;;;;;;;;;5024261;28;20028;-66
2023/04/06 00:25:33;;;;;;;7.20;4.75;;;;;;;;;;5041215;28;20071;-66
2023/04/06 00:27:59;;;;;;;7.28;5.22;;;;;;;;;;5045756;28;20510;-66
2023/04/06 00:30:25;;;;;;;7.72;4.68;;;;;;;;;;5042292;28;20041;-66
2023/04/06 00:32:51;;;;;;;8.38;4.88;;;;;;;;;;5024212;28;20053;-66
2023/04/06 00:35:17;;;;;;;7.75;5.15;;;;;;;;;;5044262;28;20048;-66
2023/04/06 00:37:44;;;;;;;9.48;5.55;;;;;;;;;;5045894;28;20116;-66
2023/04/06 00:40:10;;;;;;;7.07;4.97;;;;;;;;;;5045522;28;20040;-67
2023/04/06 00:42:36;;;;;;;7.82;5.20;;;;;;;;;;5046950;28;20132;-66
2023/04/06 00:45:03;;;;;;;8.10;5.70;;;;;;;;;;5025071;28;20087;-67
2023/04/06 00:47:29;;;;;;;7.95;5.97;;;;;;;;;;5037394;28;20048;-66
2023/04/06 00:49:55;;;;;;;7.50;4.95;;;;;;;;;;5043162;28;20502;-67
2023/04/06 00:52:21;;;;;;;7.60;5.10;;;;;;;;;;5047073;28;20040;-66
2023/04/06 00:54:48;;;;;;;6.78;4.85;;;;;;;;;;4986212;28;1153664;-67
2023/04/06 00:57:14;;;;;;;5.68;4.53;;;;;;;;;;5028410;28;20065;-66
2023/04/06 00:59:40;;;;;;;6.38;4.97;;;;;;;;;;5025069;28;20091;-67
2023/04/06 01:02:07;;;;;;;5.63;4.53;;;;;;;;;;5029136;28;21005;-66
2023/04/06 01:04:33;;;;;;;7.57;5.45;;;;;;;;;;5034138;28;20518;-66
2023/04/06 01:06:59;;;;;;;10.13;5.45;;;;;;;;;;5032016;28;20626;-66
2023/04/06 01:09:28;;;;;;;7.20;5.30;;;;;;;;;;5034749;28;20041;-66
2023/04/06 01:11:55;;;;;;;8.68;5.10;;;;;;;;;;5036448;28;20122;-66
2023/04/06 01:14:21;;;;;;;8.95;5.68;;;;;;;;;;5031139;28;20591;-66
2023/04/06 01:16:47;;;;;;;7.43;4.70;;;;;;;;;;5035857;28;20037;-66
2023/04/06 01:19:14;;;;;;;7.82;5.00;;;;;;;;;;5027663;28;20037;-66
2023/04/06 01:21:40;;;;;;;6.15;5.07;;;;;;;;;;5029887;28;20037;-66
2023/04/06 01:24:07;;;;;;;6.32;4.57;;;;;;;;;;5027557;28;20077;-66
2023/04/06 01:26:34;;;;;;;9.82;5.72;;;;;;;;;;5024920;28;20060;-66
2023/04/06 01:29:00;;;;;;;8.30;5.00;;;;;;;;;;5025062;28;20045;-66
2023/04/06 01:31:27;;;;;;;7.03;5.38;;;;;;;;;;5023812;28;20172;-66
2023/04/06 01:33:53;;;;;;;8.40;5.43;;;;;;;;;;5026110;28;20388;-66
2023/04/06 01:36:20;;;;;;;8.23;5.25;;;;;;;;;;5024180;28;20041;-67
2023/04/06 01:38:46;;;;;;;8.25;5.35;;;;;;;;;;5029929;28;20087;-67
2023/04/06 01:41:12;;;;;;;7.80;4.93;;;;;;;;;;5036322;28;20080;-67
2023/04/06 01:43:38;;;;;;;8.98;5.03;;;;;;;;;;5032344;28;20056;-66
2023/04/06 01:46:05;;;;;;;10.10;5.97;;;;;;;;;;5026098;28;20046;-66
2023/04/06 01:48:31;;;;;;;7.57;4.63;;;;;;;;;;5029361;28;20076;-67
2023/04/06 01:50:58;;;;;;;8.73;5.65;;;;;;;;;;5032150;28;20506;-67
2023/04/06 01:53:24;;;;;;;9.50;5.22;;;;;;;;;;5027534;28;20053;-66
2023/04/06 01:55:50;;;;;;;8.05;4.45;;;;;;;;;;5043052;28;20483;-67
2023/04/06 01:58:16;;;;;;;6.15;4.90;;;;;;;;;;5028117;28;20105;-67
2023/04/06 02:00:42;;;;;;;6.75;5.38;;;;;;;;;;5013573;28;20052;-67
2023/04/06 02:03:08;;;;;;;8.80;5.65;;;;;;;;;;5045586;28;20218;-66
2023/04/06 02:05:37;;;;;;;9.23;5.30;;;;;;;;;;5048369;28;20040;-67
2023/04/06 02:08:07;;;;;;;6.53;5.15;;;;;;;;;;5030354;28;20076;-66
2023/04/06 02:10:33;;;;;;;7.95;4.68;;;;;;;;;;5042579;28;20124;-66
2023/04/06 02:13:00;;;;;;;9.45;5.68;;;;;;;;;;5047064;28;20514;-67
2023/04/06 02:15:26;;;;;;;11.18;5.30;;;;;;;;;;5043969;28;20052;-67
2023/04/06 02:17:53;;;;;;;8.90;4.93;;;;;;;;;;5040673;28;20033;-67
2023/04/06 02:20:19;;;;;;;9.00;5.43;;;;;;;;;;5047503;28;20212;-66
2023/04/06 02:22:45;;;;;;;6.72;4.88;;;;;;;;;;5049739;28;20045;-66
2023/04/06 02:25:11;;;;;;;6.97;4.88;;;;;;;;;;5025162;28;20515;-66
2023/04/06 02:27:37;;;;;;;8.07;5.13;;;;;;;;;;5046771;28;20298;-66
2023/04/06 02:30:04;;;;;;;8.25;5.63;;;;;;;;;;5050533;28;20040;-66
2023/04/06 02:32:30;;;;;;;7.50;4.68;;;;;;;;;;5052116;28;20048;-66
2023/04/06 02:34:56;;;;;;;8.82;5.68;;;;;;;;;;5049676;28;20045;-67
2023/04/06 02:37:26;;;;;;;9.27;5.68;;;;;;;;;;5047211;28;20202;-66
2023/04/06 02:39:52;;;;;;;7.57;4.93;;;;;;;;;;5038704;28;20111;-66
2023/04/06 02:42:18;;;;;;;6.82;5.55;;;;;;;;;;5042821;28;20076;-66
2023/04/06 02:44:44;;;;;;;8.98;4.97;;;;;;;;;;5045096;28;20128;-66
2023/04/06 02:47:10;;;;;;;6.65;5.18;;;;;;;;;;5055655;28;20502;-67
2023/04/06 02:49:37;;;;;;;8.13;5.35;;;;;;;;;;5033349;28;20104;-66
2023/04/06 02:52:03;;;;;;;8.07;5.38;;;;;;;;;;5013305;28;20045;-66
2023/04/06 02:54:29;;;;;;;8.23;6.22;;;;;;;;;;5042195;28;20044;-66
2023/04/06 02:56:55;;;;;;;9.25;4.95;;;;;;;;;;5043999;28;20140;-67
2023/04/06 02:59:21;;;;;;;5.70;4.55;;;;;;;;;;5055384;28;20438;-66
2023/04/06 03:01:48;;;;;;;6.97;5.13;;;;;;;;;;5025058;28;20041;-67
2023/04/06 03:04:14;;;;;;;9.75;5.22;;;;;;;;;;5026444;28;20049;-66
2023/04/06 03:06:40;;;;;;;10.07;5.32;;;;;;;;;;5029121;28;20164;-66
2023/04/06 03:09:07;;;;;;;9.85;6.13;;;;;;;;;;5042217;28;20451;-66
2023/04/06 03:11:33;;;;;;;8.75;5.13;;;;;;;;;;5041099;28;20069;-66
2023/04/06 03:13:59;;;;;;;7.13;5.13;;;;;;;;;;5051022;28;20037;-66
2023/04/06 03:16:25;;;;;;;10.15;5.55;;;;;;;;;;5036103;28;20084;-66
2023/04/06 03:18:51;;;;;;;9.10;5.13;;;;;;;;;;5029963;28;20056;-66
2023/04/06 03:21:19;;;;;;;7.35;5.57;;;;;;;;;;5033277;28;20041;-66
2023/04/06 03:23:45;;;;;;;8.82;6.38;;;;;;;;;;5043770;28;20084;-66
2023/04/06 03:26:11;;;;;;;9.85;5.80;;;;;;;;;;5024599;28;20542;-66
2023/04/06 03:28:37;;;;;;;5.90;5.07;;;;;;;;;;5041903;28;20168;-66
2023/04/06 03:31:04;;;;;;;7.72;5.45;;;;;;;;;;5047437;28;20029;-66
2023/04/06 03:33:30;;;;;;;8.52;5.13;;;;;;;;;;5050011;28;20036;-66
2023/04/06 03:35:56;;;;;;;7.60;5.80;;;;;;;;;;5050078;28;20112;-66
2023/04/06 03:38:22;;;;;;;9.07;5.10;;;;;;;;;;5037760;28;20068;-66
2023/04/06 03:40:48;;;;;;;7.43;5.25;;;;;;;;;;5013226;28;20041;-66
2023/04/06 03:43:15;;;;;;;8.40;5.70;;;;;;;;;;5020252;28;20064;-67
2023/04/06 03:45:41;;;;;;;7.53;5.55;;;;;;;;;;5038324;28;20215;-67
2023/04/06 03:48:07;;;;;;;9.15;5.30;;;;;;;;;;5046592;28;20034;-67
2023/04/06 03:50:33;;;;;;;7.47;6.13;;;;;;;;;;5023423;28;20045;-67
2023/04/06 03:53:02;;;;;;;6.65;4.88;;;;;;;;;;5042413;28;20041;-67
2023/04/06 03:55:29;;;;;;;10.52;5.82;;;;;;;;;;5009988;28;20075;-68
2023/04/06 03:57:55;;;;;;;10.40;6.18;;;;;;;;;;5024851;28;20526;-67
2023/04/06 04:00:22;;;;;;;9.13;6.43;;;;;;;;;;5036871;28;20037;-67
2023/04/06 04:02:48;;;;;;;7.88;5.50;;;;;;;;;;5039077;28;20071;-67
2023/04/06 04:05:14;;;;;;;7.65;5.43;;;;;;;;;;5053613;28;20044;-67
2023/04/06 04:07:40;;;;;;;10.88;6.57;;;;;;;;;;5043899;28;20398;-67
2023/04/06 04:10:06;;;;;;;7.78;5.43;;;;;;;;;;5053992;28;20381;-67
2023/04/06 04:12:33;;;;;;;8.15;6.35;;;;;;;;;;5060892;28;20045;-67
2023/04/06 04:14:59;;;;;;;16.08;6.65;;;;;;;;;;5043660;28;20048;-67
2023/04/06 04:17:25;;;;;;;7.13;5.97;;;;;;;;;;5032085;28;20049;-67
2023/04/06 04:19:51;;;;;;;7.05;5.30;;;;;;;;;;5051793;28;20427;-67
2023/04/06 04:22:17;;;;;;;8.45;6.00;;;;;;;;;;5055469;28;20037;-67
2023/04/06 04:24:43;;;;;;;10.85;6.50;;;;;;;;;;5048634;28;20049;-67
2023/04/06 04:27:09;;;;;;;9.90;6.30;;;;;;;;;;5030890;28;20495;-67
2023/04/06 04:29:36;;;;;;;8.70;6.10;;;;;;;;;;5028101;28;20386;-67
2023/04/06 04:32:02;;;;;;;8.77;5.75;;;;;;;;;;5057554;28;20622;-67
2023/04/06 04:34:28;;;;;;;8.35;5.70;;;;;;;;;;5044270;28;20041;-67
2023/04/06 04:36:55;;;;;;;8.88;6.43;;;;;;;;;;5041584;28;20060;-67
2023/04/06 04:39:21;;;;;;;11.60;7.75;;;;;;;;;;5049403;28;20041;-67
2023/04/06 04:41:47;;;;;;;9.15;6.50;;;;;;;;;;5044834;28;20044;-67
2023/04/06 04:44:14;;;;;;;7.60;5.47;;;;;;;;;;5053221;28;20032;-66
2023/04/06 04:46:41;;;;;;;9.38;6.80;;;;;;;;;;5039581;28;20491;-66
2023/04/06 04:49:07;;;;;;;8.88;6.50;;;;;;;;;;5025871;28;20134;-66
2023/04/06 04:51:33;;;;;;;12.45;6.85;;;;;;;;;;5043958;28;20158;-66
2023/04/06 04:53:59;;;;;;;16.02;6.53;;;;;;;;;;5045761;28;20044;-66
2023/04/06 04:56:27;;;;;;;10.40;6.05;;;;;;;;;;5047394;28;20057;-66
2023/04/06 04:58:53;;;;;;;10.40;6.68;;;;;;;;;;5051230;28;20124;-66
2023/04/06 05:01:19;;;;;;;9.82;6.43;;;;;;;;;;5031122;28;20091;-66
2023/04/06 05:03:46;;;;;;;7.85;6.05;;;;;;;;;;5018404;28;20044;-67
2023/04/06 05:06:12;;;;;;;9.13;6.50;;;;;;;;;;5048700;28;20029;-67
2023/04/06 05:08:41;;;;;;;9.15;5.88;;;;;;;;;;5031991;28;20053;-67
2023/04/06 05:11:07;;;;;;;14.10;6.65;;;;;;;;;;5042033;28;20045;-67
2023/04/06 05:13:33;;;;;;;10.18;6.50;;;;;;;;;;5055299;28;20793;-67
2023/04/06 05:15:59;;;;;;;9.27;6.55;;;;;;;;;;5027709;28;20083;-67
2023/04/06 05:18:26;;;;;;;10.65;6.88;;;;;;;;;;5032586;28;20110;-67
2023/04/06 05:20:52;;;;;;;12.60;7.20;;;;;;;;;;5040965;28;20040;-67
2023/04/06 05:23:18;;;;;;;8.35;6.97;;;;;;;;;;5037720;28;20115;-67
2023/04/06 05:25:44;;;;;;;9.20;6.88;;;;;;;;;;5044399;28;20476;-67
2023/04/06 05:28:13;;;;;;;12.93;7.55;;;;;;;;;;5037729;28;20030;-67
2023/04/06 05:30:40;;;;;;;10.02;7.30;;;;;;;;;;5024337;28;20037;-67
2023/04/06 05:33:06;;;;;;;7.03;5.90;;;;;;;;;;5011121;28;20071;-67
2023/04/06 05:35:32;;;;;;;13.93;6.60;;;;;;;;;;5024577;28;20053;-67
2023/04/06 05:37:58;;;;;;;11.35;7.20;;;;;;;;;;5037980;28;20148;-67
2023/04/06 05:40:25;;;;;;;11.32;7.22;;;;;;;;;;5020836;28;20044;-67
2023/04/06 05:42:51;;;;;;;9.15;7.38;;;;;;;;;;5027506;28;20425;-67
2023/04/06 05:45:18;;;;;;;11.05;7.18;;;;;;;;;;5034800;28;20041;-67
2023/04/06 05:47:45;;;;;;;11.45;7.88;;;;;;;;;;5048983;28;20106;-67
2023/04/06 05:50:12;;;;;;;8.88;6.00;;;;;;;;;;5046247;28;20044;-67
2023/04/06 05:52:38;;;;;;;9.35;7.05;;;;;;;;;;5039479;28;20502;-67
2023/04/06 05:55:04;;;;;;;14.90;7.72;;;;;;;;;;5048112;28;20068;-67
2023/04/06 05:57:31;;;;;;;10.35;7.43;;;;;;;;;;5044027;28;20056;-67
2023/04/06 05:59:57;;;;;;;11.20;6.82;;;;;;;;;;5029582;28;20041;-67
2023/04/06 06:02:23;;;;;;;9.32;6.93;;;;;;;;;;5049348;28;20550;-67
2023/04/06 06:04:49;;;;;;;14.18;8.50;;;;;;;;;;5047932;28;20068;-67
2023/04/06 06:07:16;;;;;;;12.98;7.72;;;;;;;;;;5047952;28;20165;-67
2023/04/06 06:09:42;;;;;;;16.00;7.55;;;;;;;;;;5034103;28;20041;-66
2023/04/06 06:12:08;;;;;;;10.68;7.22;;;;;;;;;;5049825;28;20047;-67
2023/04/06 06:14:34;;;;;;;11.82;7.03;;;;;;;;;;5048388;28;20431;-67
2023/04/06 06:17:00;;;;;;;12.35;8.57;;;;;;;;;;5049507;28;20044;-67
2023/04/06 06:19:27;;;;;;;11.80;7.00;;;;;;;;;;5051721;28;20029;-67
2023/04/06 06:21:53;;;;;;;11.60;8.30;;;;;;;;;;5050447;28;20250;-67
2023/04/06 06:24:19;;;;;;;13.50;8.07;;;;;;;;;;5026585;28;20044;-67
2023/04/06 06:26:45;;;;;;;10.00;8.10;;;;;;;;;;5043534;28;20049;-67
2023/04/06 06:29:11;;;;;;;12.32;7.85;;;;;;;;;;5025388;28;20611;-68
2023/04/06 06:31:37;;;;;;;12.40;7.03;;;;;;;;;;5049508;28;20041;-66
2023/04/06 06:34:04;;;;;;;14.63;8.02;;;;;;;;;;5049395;28;20041;-66
2023/04/06 06:36:31;;;;;;;10.15;6.63;;;;;;;;;;5014811;28;20115;-66
2023/04/06 06:38:58;;;;;;;12.30;7.75;;;;;;;;;;5050243;28;20056;-66
2023/04/06 06:41:26;;;;;;;13.20;8.65;;;;;;;;;;5049116;28;20114;-66
2023/04/06 06:43:52;;;;;;;12.35;7.97;;;;;;;;;;5048862;28;20044;-66
2023/04/06 06:46:18;;;;;;;10.65;7.15;;;;;;;;;;5051491;28;20143;-66
2023/04/06 06:48:44;;;;;;;10.90;8.23;;;;;;;;;;5031269;28;20041;-66
2023/04/06 06:51:11;;;;;;;14.07;8.00;;;;;;;;;;5051826;28;20048;-66
2023/04/06 06:53:37;;;;;;;12.52;8.07;;;;;;;;;;5030223;28;20340;-66
2023/04/06 06:56:04;;;;;;;15.70;8.60;;;;;;;;;;5047475;28;20049;-66
2023/04/06 06:58:30;;;;;;;10.52;7.47;;;;;;;;;;5046259;28;20048;-67
2023/04/06 07:00:57;;;;;;;12.20;8.00;;;;;;;;;;5049454;28;20037;-66
2023/04/06 07:03:23;;;;;;;13.20;7.45;;;;;;;;;;5045093;28;20037;-66
2023/04/06 07:05:53;;;;;;;10.52;8.10;;;;;;;;;;5046401;28;20041;-66
2023/04/06 07:08:22;;;;;;;9.88;7.55;;;;;;;;;;5049772;28;20037;-66
2023/04/06 07:10:50;;;;;;;13.77;7.93;;;;;;;;;;5053276;28;20036;-66
2023/04/06 07:13:21;;;;;;;15.10;8.20;;;;;;;;;;5050630;28;20444;-66
2023/04/06 07:15:47;;;;;;;17.63;8.13;;;;;;;;;;5050347;28;20059;-66
2023/04/06 07:18:14;;;;;;;9.02;6.50;;;;;;;;;;5050064;28;20095;-66
2023/04/06 07:20:40;;;;;;;10.48;7.35;;;;;;;;;;5029937;28;20128;-66
2023/04/06 07:23:07;;;;;;;17.20;7.18;;;;;;;;;;5033780;28;20040;-66
2023/04/06 07:25:33;;;;;;;15.25;9.02;;;;;;;;;;5034967;28;20128;-66
2023/04/06 07:27:59;;;;;;;10.10;7.53;;;;;;;;;;5034474;28;20076;-66
2023/04/06 07:30:28;;;;;;;13.60;7.85;;;;;;;;;;5052963;28;20121;-67
2023/04/06 07:32:55;;;;;;;14.25;7.20;;;;;;;;;;5050713;28;20098;-66
2023/04/06 07:35:22;;;;;;;11.30;7.25;;;;;;;;;;5042646;28;20361;-66
2023/04/06 07:37:49;;;;;;;11.27;8.23;;;;;;;;;;5055101;28;20037;-66
2023/04/06 07:40:15;;;;;;;13.23;7.93;;;;;;;;;;5055838;28;20056;-66
2023/04/06 07:42:41;;;;;;;13.70;7.20;;;;;;;;;;5049927;28;20065;-66
2023/04/06 07:45:08;;;;;;;9.80;7.50;;;;;;;;;;5056580;28;20041;-66
2023/04/06 07:47:34;;;;;;;17.02;8.70;;;;;;;;;;5033926;28;20056;-66
2023/04/06 07:50:00;;;;;;;12.15;7.30;;;;;;;;;;5034398;28;20445;-66
2023/04/06 07:52:26;;;;;;;11.63;7.90;;;8.40;89.10;;;;;;5048841;28;20090;-66
2023/04/06 07:54:52;;;;;;;11.23;7.55;;;6.80;98.10;;;;;;5052897;28;20045;-66
2023/04/06 07:57:19;;;;;;;15.68;8.32;;;;;;;;;;5028950;28;20049;-66
2023/04/06 07:59:45;;;;;;;17.15;7.97;;;;;;;;;;5029048;28;20057;-66
2023/04/06 08:02:11;;;;;;;12.40;8.15;;;;;;;;;;5037215;28;20060;-66
2023/04/06 08:04:37;;;;;;;9.70;7.05;;;;;;;;;;5033800;28;20075;-66
2023/04/06 08:07:03;;;;;;;10.60;7.10;;;;;;;;;;5029858;28;20048;-67
2023/04/06 08:09:29;;;;;;;15.05;8.60;;;;;;;;;;5028507;28;20088;-67
2023/04/06 08:11:56;;;;;;;11.07;7.35;;;;;;;;;;5030556;28;20141;-66
2023/04/06 08:14:22;;;;;;;11.00;8.30;;;;;;;;;;5036201;28;20056;-66
2023/04/06 08:16:48;;;;;;;9.63;6.93;;;;;;;;;;5023635;28;20045;-67
2023/04/06 08:19:16;;;;;;;10.35;7.57;;;;;;;;;;5030331;28;20036;-66
2023/04/06 08:21:43;;;;;;;12.90;8.40;;;;;;;;;;5030940;28;20049;-66
2023/04/06 08:24:09;;;;;;;13.88;8.77;;;;;;;;;;5029947;28;20042;-66
2023/04/06 08:26:36;;;;;;;12.73;8.18;;;;;;;;;;5030027;28;20041;-66
2023/04/06 08:29:03;;;;;;;11.88;7.90;;;;;;;;;;5025887;28;20143;-66
2023/04/06 08:31:30;;;;;;;14.52;9.02;;;;;;;;;;5037818;28;20041;-66
2023/04/06 08:33:56;;;;;;;15.15;8.63;;;;;;;;;;5028349;28;20363;-66
2023/04/06 08:36:22;;;;;;;13.40;8.23;;;;;;;;;;5032069;28;20033;-66
2023/04/06 08:38:50;;;;;;;14.02;8.07;;;;;;;;;;5028611;28;20043;-66
2023/04/06 08:41:17;;;;;;;11.73;8.32;;;;;;;;;;5033995;28;20046;-66
2023/04/06 08:43:44;;;;;;;12.23;8.85;;;;;;;;;;5030928;28;20543;-66
2023/04/06 08:46:11;;;;;;;14.40;8.73;;;6.80;97.80;;;;;;5029381;28;20049;-67
2023/04/06 08:48:39;;;;;;;14.25;7.95;;;8.00;95.50;;;;;;5029034;28;20375;-67
2023/04/06 08:51:06;;;;;;;13.52;8.68;;;8.10;95.50;;;;;;5032648;28;20037;-67
2023/04/06 08:53:32;;;;;;;16.25;9.95;;;;;;;;;;5030315;28;20049;-67
2023/04/06 08:55:58;;;;;;;17.55;10.63;;;;;;;;;;5013382;28;20046;-67
2023/04/06 08:58:25;;;;;;;16.20;9.80;;;;;;;;;;5041913;28;20060;-67
2023/04/06 09:00:52;;;;;;;15.27;10.40;;;;;;;;;;5050048;28;20041;-67
2023/04/06 09:03:19;;;;;;;13.52;9.50;;;;;;;;;;5031865;28;20686;-67
2023/04/06 09:05:46;;;;;;;17.88;10.75;;;;;;;;;;5051255;28;20473;-67
2023/04/06 09:08:12;;;;;;;12.80;9.23;;;;;;;;;;5049040;28;20489;-67
2023/04/06 09:10:41;;;;;;;16.13;10.15;;;;;;;;;;5033038;28;20083;-67
2023/04/06 09:13:08;;;;;;;17.33;10.57;;;;;;;;;;5036002;28;20083;-68
2023/04/06 09:15:34;;;;;;;16.70;10.15;;;;;;;;;;5019618;28;20482;-67
2023/04/06 09:18:00;;;;;;;19.00;10.82;;;;;;;;;;5049286;28;20339;-67
2023/04/06 09:20:28;;;;;;;19.83;11.55;;;;;;;;;;5049158;28;20086;-67
2023/04/06 09:22:54;;;;;;;16.08;10.40;;;;;;;;;;5049367;28;20036;-67
2023/04/06 09:25:25;;;;;;;17.23;10.73;;;;;;;;;;5049992;28;20049;-67
2023/04/06 09:28:01;;;;;;;14.25;10.32;;;;;;;;;;5051539;28;20041;-67
2023/04/06 09:30:27;;;;;;;20.65;12.23;;;8.10;95.70;;;;;;5045535;28;20036;-67
2023/04/06 09:32:54;;;;;;;15.60;10.60;;;;;;;;;;5052898;28;20036;-67
2023/04/06 09:35:21;;;;;;;17.10;11.68;;;;;;;;;;5029323;28;20095;-68
2023/04/06 09:37:48;;;;;;;16.88;10.75;;;;;;;;;;5050459;28;20059;-67
2023/04/06 09:40:14;;;;;;;16.67;12.15;;;9.20;93.30;;;;;;5025776;28;20048;-67
2023/04/06 09:42:42;;;;;;;18.00;11.68;;;9.50;92.90;;;;;;5033960;28;20507;-67
2023/04/06 09:45:08;;;;;;;21.80;11.70;;;9.60;92.80;;;;;;5044919;28;20487;-67
2023/04/06 09:47:36;;;;;;;18.58;11.85;;;9.60;92.80;;;;;;5046956;28;20048;-67
2023/04/06 09:50:03;;;;;;;15.80;11.00;;;9.80;92.60;;;;;;5047460;28;20055;-67
2023/04/06 09:52:33;;;;;;;18.58;12.40;;;;;;;;;;5045337;28;20106;-67
2023/04/06 09:55:02;;;;;;;18.50;12.20;;;;;;;;;;5050353;28;20045;-67
2023/04/06 09:57:37;;;;;;;17.52;11.75;;;;;;;;;;5039451;28;20049;-67
2023/04/06 10:00:09;;;;;;;18.42;11.75;;;;;;;;;;5047382;28;20466;-67
2023/04/06 10:02:41;;;;;;;17.55;11.65;;;;;;;;;;5050788;28;20075;-67
2023/04/06 10:05:17;;;;;;;19.08;12.90;;;;;;;;;;5027504;28;20120;-68
2023/04/06 10:07:43;;;;;;;14.60;10.85;;;;;;;;;;5027113;28;20033;-67
2023/04/06 10:10:10;;;;;;;17.63;12.02;;;;;;;;;;5031300;28;20493;-67
2023/04/06 10:12:38;;;;;;;21.30;11.50;;;;;;;;;;5050709;28;20664;-67
2023/04/06 10:15:04;;;;;;;16.48;12.32;;;;;;;;;;5047734;28;20406;-67
2023/04/06 10:17:30;;;;;;;16.83;11.80;;;;;;;;;;5042660;28;20407;-68
2023/04/06 10:20:15;;;;;;;19.40;12.38;;;;;;;;;;5031521;28;20486;-67
2023/04/06 10:22:41;;;;;;;22.55;12.93;;;;;;;;;;5045765;28;20047;-67
2023/04/06 10:25:09;;;;;;;19.42;13.10;;;;;;;;;;5026197;28;20051;-68
2023/04/06 10:27:35;;;;;;;19.35;12.52;;;;;;;;;;5047961;28;20049;-68
2023/04/06 10:30:02;;;;;;;17.80;12.57;;;;;;;;;;5053636;28;20047;-67
2023/04/06 10:32:36;;;;;;;19.58;12.60;;;;;;;;;;5030966;28;20128;-68
2023/04/06 10:35:20;;;;;;;25.52;13.93;;;;;;;;;;5029853;28;20041;-68
2023/04/06 10:38:07;;;;;;;17.50;12.82;;;;;;;;;;5035923;28;20037;-67
2023/04/06 10:40:36;;;;;;;19.00;14.13;;;;;;;;;;5050867;28;20093;-68
2023/04/06 10:43:19;;;;;;;18.90;13.60;;;;;;;;;;5048724;28;20059;-67
2023/04/06 10:45:45;;;;;;;;;;;;;;;;;;5050816;28;20037;-67
2023/04/06 10:48:15;;;;;;;17.65;12.88;;;;;;;;;;5058543;28;20316;-68
2023/04/06 10:50:45;;;;;;;25.63;14.68;;;;;;;;;;5054209;28;20144;-67
2023/04/06 10:53:11;;;;;;;22.67;13.73;;;;;;;;;;5052634;28;20048;-68
2023/04/06 10:55:41;;;;;;;22.88;13.60;;;;;;;;;;5048388;28;20053;-67
2023/04/06 10:58:08;;;;;;;19.33;13.73;;;;;;;;;;5049828;28;20053;-67
2023/04/06 11:00:34;;;;;;;22.30;13.55;;;;;;;;;;5049765;28;20078;-68
2023/04/06 11:03:01;;;;;;;21.70;14.88;;;;;;;;;;5034862;28;20487;-67
2023/04/06 11:05:27;;;;;;;23.02;14.32;;;;;;;;;;5061352;28;20678;-68
2023/04/06 11:07:54;;;;;;;28.30;14.23;;;;;;;;;;5055638;28;20741;-67
2023/04/06 11:10:23;;;;;;;22.05;14.93;;;9.80;92.70;;;;;;5052432;28;20485;-67
2023/04/06 11:12:54;;;;;;;21.30;14.07;;;10.80;85.60;;;;;;5034288;28;20356;-67
2023/04/06 11:15:20;;;;;;;23.67;15.38;;;10.80;85.40;;;;;;5064196;28;20421;-67
2023/04/06 11:17:46;;;;;;;24.45;14.02;;;10.80;85.60;;;;;;5054852;28;20117;-67
2023/04/06 11:20:12;;;;;;;21.13;13.98;;;10.80;85.60;;;;;;5034003;28;20116;-67
2023/04/06 11:22:51;;;;;;;23.90;14.75;;;10.90;86.00;;;;;;5033661;28;20045;-67
2023/04/06 11:25:18;;;;;;;24.70;16.42;;;10.90;85.90;;;;;;5043790;28;20512;-67
2023/04/06 11:27:46;;;;;;;25.38;15.30;;;11.00;86.80;;;;;;5050749;28;20043;-67
2023/04/06 11:30:12;;;;;;;23.88;16.73;;;11.10;86.70;;;;;;5047329;28;20179;-67
2023/04/06 11:32:44;;;;;;;24.90;16.27;;;11.10;85.90;;;;;;5034176;28;20114;-67
2023/04/06 11:35:25;;;;;;;22.58;14.90;;;11.10;85.70;;;;;;5057945;28;20410;-67
2023/04/06 11:37:51;;;;;;;22.52;15.63;;;11.10;86.30;;;;;;5029108;28;20044;-67
2023/04/06 11:40:27;;;;;;;24.65;15.27;;;11.10;86.10;;;;;;5031526;28;20495;-67
2023/04/06 11:42:56;;;;;;;24.45;15.35;;;11.10;86.10;;;;;;5035023;28;20037;-67
2023/04/06 11:45:22;;;;;;;25.92;14.95;;;11.10;86.20;;;;;;5050108;28;20398;-67
2023/04/06 11:47:59;;;;;;;25.40;16.05;;;11.10;86.30;;;;;;5030442;28;20041;-67
2023/04/06 11:50:31;;;;;;;22.38;15.32;;;11.10;86.70;;;;;;5048096;28;20036;-67
2023/04/06 11:53:01;;;;;;;26.95;17.13;;;11.10;86.90;;;;;;5030841;28;20294;-67
2023/04/06 11:55:27;;;;;;;25.00;16.02;;;11.10;86.60;;;;;;5047367;28;20076;-67
2023/04/06 11:57:53;;;;;;;19.63;15.43;;;11.20;86.70;;;;;;5049212;28;20072;-67
2023/04/06 12:00:21;;;;;;;22.35;14.98;;;11.10;86.80;;;;;;5055400;28;20124;-67
2023/04/06 12:02:48;;;;;;;22.13;14.80;;;11.20;87.30;;;;;;5052916;28;20115;-67
2023/04/06 12:05:14;;;;;;;28.48;15.13;;;11.20;87.40;;;;;;5049489;28;21059;-67
2023/04/06 12:07:40;;;;;;;22.52;15.02;;;;;;;;;;5030929;28;20037;-67
2023/04/06 12:10:07;;;;;;;23.85;15.10;;;;;;;;;;5061568;28;20044;-67
2023/04/06 12:12:33;;;;;;;23.23;16.15;;;;;;;;;;5031480;28;20626;-67
2023/04/06 12:14:59;;;;;;;23.65;15.10;;;;;;;;;;5049642;28;20052;-67
2023/04/06 12:17:26;;;;;;;20.92;13.82;;;;;;;;;;5048802;28;20175;-67
2023/04/06 12:19:52;;;;;;;21.88;14.93;;;;;;;;;;5058162;28;20040;-67
2023/04/06 12:22:18;;;;;;;21.98;15.90;;;;;;;;;;5030189;28;20032;-67
2023/04/06 12:24:44;;;;;;;22.02;15.00;;;;;;;;;;5052044;28;20708;-67
2023/04/06 12:27:11;;;;;;;26.33;15.18;;;;;;;;;;5049153;28;20033;-67
2023/04/06 12:29:38;;;;;;;18.83;14.43;;;;;;;;;;5049517;28;20040;-67
2023/04/06 12:32:05;;;;;;;19.50;12.65;;;11.30;87.70;;;;;;5049288;28;20182;-66
2023/04/06 12:34:31;;;;;;;18.70;12.75;;;;;;;;;;5049103;28;20037;-67
2023/04/06 12:36:57;;;;;;;19.65;13.95;;;;;;;;;;5058446;28;20291;-67
2023/04/06 12:39:23;;;;;;;22.65;14.55;;;;;;;;;;5035878;28;20045;-67
2023/04/06 12:41:50;;;;;;;20.70;12.93;;;;;;;;;;5048659;28;20516;-67
2023/04/06 12:44:16;;;;;;;25.40;14.70;;;;;;;;;;5050636;28;20049;-67
2023/04/06 12:46:43;;;;;;;20.95;13.63;;;;;;;;;;5049625;28;20520;-67
2023/04/06 12:49:09;;;;;;;20.60;13.80;;;;;;;;;;5057802;28;20063;-67
2023/04/06 12:51:35;;;;;;;20.02;13.25;;;;;;;;;;5047805;28;20056;-67
2023/04/06 12:54:02;;;;;;;19.65;12.70;;;;;;;;;;5047154;28;20084;-67
2023/04/06 12:56:28;;;;;;;16.98;12.15;;;;;;;;;;5048060;28;20073;-67
2023/04/06 12:58:54;;;;;;;17.52;12.50;;;;;;;;;;5052832;28;20049;-67
2023/04/06 13:01:21;;;;;;;17.98;11.57;;;;;;;;;;5031916;28;20044;-67
2023/04/06 13:03:47;;;;;;;13.68;9.35;;;;;;;;;;5057541;28;20106;-67
2023/04/06 13:06:14;;;;;;;14.27;9.52;;;;;;;;;;5048291;28;20029;-67
2023/04/06 13:08:40;;;;;;;11.98;8.40;;;;;;;;;;5029969;28;20033;-67
2023/04/06 13:11:09;;;;;;;15.80;10.77;;;;;;;;;;5029983;28;20051;-67
2023/04/06 13:13:36;;;;;;;16.92;11.15;;;;;;;;;;5020791;28;20049;-67
2023/04/06 13:16:04;;;;;;;15.70;9.48;;;;;;;;;;5049033;28;20801;-67
2023/04/06 13:18:32;;;;;;;13.85;10.45;;;;;;;;;;5050190;28;20133;-67
2023/04/06 13:20:59;;;;;;;18.48;10.48;;;;;;;;;;5032415;28;20040;-67
2023/04/06 13:23:25;;;;;;;17.52;10.95;;;;;;;;;;5048641;28;20078;-67
2023/04/06 13:26:18;;;;;;;17.17;10.30;;;;;;;;;;5043407;28;20345;-67
2023/04/06 13:28:44;;;;;;;15.70;10.43;;;;;;;;;;5044146;28;20125;-67
2023/04/06 13:31:10;;;;;;;17.48;10.30;;;;;;;;;;5047392;28;20279;-67
2023/04/06 13:33:36;;;;;;;18.48;9.38;;;;;;;;;;5045411;28;20044;-67
2023/04/06 13:36:03;;;;;;;14.45;10.10;;;;;;;;;;5030835;28;20741;-67
2023/04/06 13:38:30;;;;;;;14.35;10.32;;;;;;;;;;5049647;28;20490;-67
2023/04/06 13:40:56;;;;;;;16.77;9.98;;;;;;;;;;5042577;28;20048;-67
2023/04/06 13:43:22;;;;;;;16.20;10.77;;;;;;;;;;5051080;28;20398;-67
2023/04/06 13:45:52;;;;;;;17.08;10.77;;;;;;;;;;5048300;28;20098;-67
2023/04/06 13:48:18;;;;;;;17.50;11.43;;;;;;;;;;5043848;28;20040;-67
2023/04/06 13:50:45;;;;;;;18.40;11.88;;;;;;;;;;5041817;28;20040;-67
2023/04/06 13:53:11;;;;;;;17.92;11.18;;;;;;;;;;5049009;28;20091;-66
2023/04/06 13:55:38;;;;;;;15.50;11.43;;;;;;;;;;5032127;28;20128;-66
2023/04/06 13:58:04;;;;;;;17.75;11.75;;;;;;;;;;5029950;28;20324;-66
2023/04/06 14:00:30;;;;;;;18.05;13.18;;;;;;;;;;5054411;28;20096;-66
2023/04/06 14:02:56;;;;;;;19.05;12.75;;;;;;;;;;5050148;28;20040;-66
2023/04/06 14:05:23;;;;;;;18.75;12.77;;;;;;;;;;5049484;28;20406;-66
2023/04/06 14:07:50;;;;;;;19.38;12.82;;;;;;;;;;5048333;28;20084;-66
2023/04/06 14:10:16;;;;;;;19.50;12.25;;;;;;;;;;5062128;28;20076;-66
2023/04/06 14:12:44;;;;;;;18.15;12.63;;;;;;;;;;5055251;28;20124;-66
2023/04/06 14:15:11;;;;;;;20.70;13.20;;;;;;;;;;5026397;28;20040;-66
2023/04/06 14:17:37;;;;;;;22.40;13.68;;;;;;;;;;5032080;28;20043;-66